createdAt,value
2018-10-02T00:00:54.906Z,72.40
2018-10-02T00:03:23.447Z,72.40
2018-10-02T00:05:52.017Z,71.90
2018-10-02T00:08:20.561Z,71.40
2018-10-02T00:11:52.248Z,71.30
2018-10-02T00:14:23.223Z,71.40
2018-10-02T00:16:51.806Z,71.30
2018-10-02T00:19:20.353Z,71.30
2018-10-02T00:21:48.879Z,72.20
2018-10-02T00:24:17.454Z,71.60
2018-10-02T00:26:46.019Z,71.80
2018-10-02T00:29:14.824Z,72.00
2018-10-02T00:31:43.518Z,71.90
2018-10-02T00:34:12.088Z,72.00
2018-10-02T00:36:40.859Z,72.00
2018-10-02T00:39:09.384Z,72.60
2018-10-02T00:41:37.966Z,72.40
2018-10-02T00:44:06.573Z,72.20
2018-10-02T00:46:35.077Z,72.30
2018-10-02T00:49:03.612Z,72.60
2018-10-02T00:51:32.180Z,72.30
2018-10-02T00:54:00.726Z,72.50
2018-10-02T00:56:29.269Z,72.50
2018-10-02T00:58:57.784Z,73.30
2018-10-02T01:01:26.764Z,73.30
2018-10-02T01:03:55.267Z,73.90
2018-10-02T01:06:23.801Z,74.30
2018-10-02T01:08:52.322Z,73.60
2018-10-02T01:11:20.915Z,73.30
2018-10-02T01:13:49.490Z,73.40
2018-10-02T01:16:18.040Z,73.50
2018-10-02T01:18:46.564Z,73.70
2018-10-02T01:21:15.106Z,74.10
2018-10-02T01:23:43.664Z,74.00
2018-10-02T01:26:12.252Z,73.80
2018-10-02T01:28:41.365Z,73.70
2018-10-02T01:31:09.913Z,73.90
2018-10-02T01:33:38.422Z,74.00
2018-10-02T01:36:07.520Z,73.60
2018-10-02T01:38:36.035Z,73.10
2018-10-02T01:41:04.760Z,73.40
2018-10-02T01:43:33.328Z,73.60
2018-10-02T01:46:02.168Z,73.80
2018-10-02T01:48:30.720Z,73.50
2018-10-02T01:50:59.762Z,74.10
2018-10-02T01:53:28.282Z,74.00
2018-10-02T01:55:56.829Z,74.10
2018-10-02T01:58:25.366Z,74.70
2018-10-02T02:00:53.941Z,74.60
2018-10-02T02:03:22.947Z,75.10
2018-10-02T02:05:51.506Z,75.00
2018-10-02T02:08:20.084Z,75.70
2018-10-02T02:10:48.618Z,76.00
2018-10-02T02:13:17.115Z,76.50
2018-10-02T02:15:45.672Z,76.60
2018-10-02T02:18:14.320Z,76.80
2018-10-02T02:20:42.881Z,77.10
2018-10-02T02:23:11.412Z,77.10
2018-10-02T02:25:39.949Z,76.40
2018-10-02T02:28:08.467Z,77.40
2018-10-02T02:30:37.008Z,77.80
2018-10-02T02:33:05.588Z,78.90
2018-10-02T02:35:34.165Z,79.50
2018-10-02T02:38:02.703Z,80.00
2018-10-02T02:40:31.226Z,80.70
2018-10-02T02:42:59.754Z,81.90
2018-10-02T02:45:28.262Z,81.80
2018-10-02T02:48:02.574Z,82.10
2018-10-02T02:50:36.566Z,81.90
2018-10-02T02:53:13.706Z,81.10
2018-10-02T02:55:42.510Z,80.90
2018-10-02T02:58:11.036Z,80.80
2018-10-02T03:00:39.561Z,80.70
2018-10-02T03:03:08.156Z,81.70
2018-10-02T03:05:36.664Z,81.20
2018-10-02T03:08:05.255Z,82.00
2018-10-02T03:10:33.767Z,81.50
2018-10-02T03:13:02.319Z,81.60
2018-10-02T03:15:31.808Z,82.00
2018-10-02T03:18:00.351Z,82.30
2018-10-02T03:20:29.439Z,81.60
2018-10-02T03:22:57.983Z,82.40
2018-10-02T03:25:26.512Z,81.90
2018-10-02T03:27:55.060Z,82.30
2018-10-02T03:30:23.787Z,83.60
2018-10-02T03:32:52.319Z,84.70
2018-10-02T03:35:20.835Z,83.80
2018-10-02T03:37:49.460Z,84.10
2018-10-02T03:40:17.980Z,84.70
2018-10-02T03:42:46.519Z,85.50
2018-10-02T03:45:15.041Z,84.50
2018-10-02T03:47:43.592Z,84.10
2018-10-02T03:50:12.104Z,84.40
2018-10-02T03:52:40.651Z,84.60
2018-10-02T03:55:09.212Z,84.40
2018-10-02T03:57:37.932Z,84.00
2018-10-02T04:00:07.007Z,84.10
2018-10-02T04:02:35.931Z,84.50
2018-10-02T04:05:04.770Z,84.10
2018-10-02T04:07:33.321Z,84.00
2018-10-02T04:10:01.832Z,84.10
2018-10-02T04:12:30.372Z,84.30
2018-10-02T04:14:58.883Z,84.60
2018-10-02T04:17:27.404Z,84.00
2018-10-02T04:19:55.938Z,84.00
2018-10-02T04:22:24.524Z,84.40
2018-10-02T04:24:53.062Z,84.20
2018-10-02T04:27:21.653Z,84.40
2018-10-02T04:29:50.168Z,84.50
2018-10-02T04:32:18.718Z,84.90
2018-10-02T04:34:47.225Z,85.40
2018-10-02T04:37:15.757Z,84.80
2018-10-02T04:39:44.268Z,85.60
2018-10-02T04:42:12.832Z,85.60
2018-10-02T04:44:41.348Z,85.30
2018-10-02T04:47:09.893Z,85.60
2018-10-02T04:49:38.452Z,86.40
2018-10-02T04:52:07.146Z,86.60
2018-10-02T04:54:35.662Z,86.30
2018-10-02T04:57:04.222Z,86.20
2018-10-02T04:59:32.756Z,86.80
2018-10-02T05:02:01.284Z,86.30
2018-10-02T05:04:29.800Z,86.00
2018-10-02T05:06:58.316Z,87.10
2018-10-02T05:09:26.881Z,88.50
2018-10-02T05:11:55.402Z,88.00
2018-10-02T05:14:23.983Z,87.70
2018-10-02T05:16:52.511Z,87.30
2018-10-02T05:19:21.084Z,87.10
2018-10-02T05:21:49.600Z,86.40
2018-10-02T05:24:18.151Z,86.40
2018-10-02T05:26:46.672Z,86.10
2018-10-02T05:29:15.222Z,86.40
2018-10-02T05:31:43.744Z,86.70
2018-10-02T05:34:12.299Z,86.80
2018-10-02T05:36:40.831Z,87.30
2018-10-02T05:39:09.745Z,86.80
2018-10-02T05:41:38.286Z,87.40
2018-10-02T05:44:06.930Z,87.20
2018-10-02T05:46:35.442Z,87.00
2018-10-02T05:49:03.999Z,86.20
2018-10-02T05:51:32.542Z,86.00
2018-10-02T05:54:01.119Z,85.80
2018-10-02T05:56:29.726Z,85.50
2018-10-02T05:58:58.278Z,85.20
2018-10-02T06:01:26.871Z,85.60
2018-10-02T06:03:55.452Z,84.80
2018-10-02T06:06:23.945Z,84.80
2018-10-02T06:08:52.799Z,84.70
2018-10-02T06:11:21.324Z,85.00
2018-10-02T06:13:49.860Z,85.50
2018-10-02T06:16:18.440Z,85.50
2018-10-02T06:18:47.102Z,85.70
2018-10-02T06:21:15.641Z,85.60
2018-10-02T06:23:44.190Z,85.70
2018-10-02T06:26:12.732Z,85.90
2018-10-02T06:28:41.267Z,86.00
2018-10-02T06:31:09.855Z,85.50
2018-10-02T06:33:38.408Z,85.40
2018-10-02T06:36:07.135Z,85.40
2018-10-02T06:38:35.829Z,85.00
2018-10-02T06:41:04.266Z,85.30
2018-10-02T06:43:32.853Z,86.50
2018-10-02T06:46:01.426Z,86.70
2018-10-02T06:48:29.972Z,87.50
2018-10-02T06:50:58.601Z,86.20
2018-10-02T06:53:27.100Z,86.20
2018-10-02T06:55:55.660Z,85.90
2018-10-02T06:58:24.205Z,85.60
2018-10-02T07:00:52.751Z,85.40
2018-10-02T07:03:21.304Z,85.30
2018-10-02T07:05:49.864Z,85.30
2018-10-02T07:08:18.427Z,85.20
2018-10-02T07:10:46.965Z,84.60
2018-10-02T07:13:15.612Z,84.00
2018-10-02T07:15:44.141Z,83.90
2018-10-02T07:18:12.712Z,84.30
2018-10-02T07:20:41.304Z,83.70
2018-10-02T07:23:09.805Z,83.40
2018-10-02T07:25:38.421Z,82.70
2018-10-02T07:28:07.053Z,81.40
2018-10-02T07:30:35.599Z,81.20
2018-10-02T07:33:04.187Z,80.70
2018-10-02T07:35:32.743Z,77.60
2018-10-02T07:38:01.278Z,75.50
2018-10-02T07:40:29.849Z,74.70
2018-10-02T07:42:58.408Z,74.10
2018-10-02T07:45:26.997Z,73.00
2018-10-02T07:47:55.829Z,70.50
2018-10-02T07:50:24.458Z,69.10
2018-10-02T07:52:52.996Z,68.80
2018-10-02T07:55:21.721Z,67.60
2018-10-02T07:57:50.314Z,68.10
2018-10-02T08:00:19.109Z,68.10
2018-10-02T08:02:47.717Z,68.00
2018-10-02T08:05:16.327Z,67.30
2018-10-02T08:07:44.956Z,66.30
2018-10-02T08:10:13.539Z,66.60
2018-10-02T08:12:42.064Z,66.70
2018-10-02T08:15:10.662Z,66.60
2018-10-02T08:17:39.242Z,65.60
2018-10-02T08:20:08.092Z,64.70
2018-10-02T08:22:36.636Z,63.70
2018-10-02T08:25:05.265Z,63.10
2018-10-02T08:27:33.889Z,63.10
2018-10-02T08:30:02.659Z,62.20
2018-10-02T08:32:31.162Z,61.70
2018-10-02T08:34:59.806Z,61.10
2018-10-02T08:37:28.382Z,60.40
2018-10-02T08:39:57.228Z,60.30
2018-10-02T08:42:25.811Z,60.50
2018-10-02T08:44:54.438Z,60.50
2018-10-02T08:47:23.012Z,60.40
2018-10-02T08:49:51.568Z,60.20
2018-10-02T08:52:20.205Z,60.20
2018-10-02T08:54:48.800Z,60.60
2018-10-02T08:57:17.361Z,60.30
2018-10-02T08:59:45.926Z,60.20
2018-10-02T09:02:14.509Z,59.30
2018-10-02T09:04:43.114Z,58.60
2018-10-02T09:07:11.683Z,58.30
2018-10-02T09:09:40.275Z,58.00
2018-10-02T09:12:08.890Z,57.40
2018-10-02T09:14:37.567Z,57.20
2018-10-02T09:17:06.154Z,57.60
2018-10-02T09:19:34.712Z,57.10
2018-10-02T09:22:03.445Z,56.60
2018-10-02T09:24:32.003Z,56.50
2018-10-02T09:27:00.548Z,56.10
2018-10-02T09:29:29.064Z,55.80
2018-10-02T09:32:03.059Z,55.50
2018-10-02T09:34:36.889Z,54.90
2018-10-02T09:37:10.889Z,54.30
2018-10-02T09:39:44.915Z,53.50
2018-10-02T09:42:18.966Z,53.10
2018-10-02T09:44:47.531Z,52.20
2018-10-02T09:47:16.085Z,51.80
2018-10-02T09:49:44.661Z,51.40
2018-10-02T09:52:13.284Z,51.60
2018-10-02T09:54:41.923Z,51.80
2018-10-02T09:57:10.444Z,51.40
2018-10-02T09:59:39.011Z,51.60
2018-10-02T10:02:09.973Z,50.90
2018-10-02T10:04:38.527Z,50.40
2018-10-02T10:07:07.123Z,49.80
2018-10-02T10:09:35.663Z,49.70
2018-10-02T10:12:04.265Z,49.50
2018-10-02T10:14:32.826Z,48.30
2018-10-02T10:17:01.537Z,48.30
2018-10-02T10:19:30.040Z,47.80
2018-10-02T10:21:58.670Z,47.80
2018-10-02T10:24:27.233Z,47.90
2018-10-02T10:26:55.984Z,47.70
2018-10-02T10:29:24.507Z,48.00
2018-10-02T10:31:53.054Z,47.60
2018-10-02T10:34:21.716Z,46.70
2018-10-02T10:36:50.511Z,47.20
2018-10-02T10:39:19.059Z,47.30
2018-10-02T10:41:47.610Z,47.30
2018-10-02T10:44:16.194Z,47.50
2018-10-02T10:46:44.789Z,47.70
2018-10-02T10:49:13.350Z,47.70
2018-10-02T10:51:41.914Z,47.80
2018-10-02T10:54:10.429Z,48.00
2018-10-02T10:56:38.992Z,47.90
2018-10-02T10:59:07.769Z,48.30
2018-10-02T11:01:36.272Z,48.70
2018-10-02T11:04:04.816Z,48.00
2018-10-02T11:06:33.377Z,48.00
2018-10-02T11:09:02.028Z,48.70
2018-10-02T11:11:30.706Z,47.70
2018-10-02T11:13:59.269Z,47.40
2018-10-02T11:16:27.826Z,47.40
2018-10-02T11:18:56.350Z,47.50
2018-10-02T11:21:24.913Z,47.00
2018-10-02T11:23:53.555Z,47.10
2018-10-02T11:26:22.152Z,47.50
2018-10-02T11:28:50.708Z,47.60
2018-10-02T11:31:19.534Z,47.60
2018-10-02T11:33:48.013Z,47.50
2018-10-02T11:36:16.572Z,47.40
2018-10-02T11:38:45.101Z,47.30
2018-10-02T11:41:13.603Z,47.30
2018-10-02T11:43:42.224Z,46.80
2018-10-02T11:46:10.763Z,46.60
2018-10-02T11:48:39.312Z,46.20
2018-10-02T11:51:07.833Z,45.90
2018-10-02T11:53:37.268Z,45.40
2018-10-02T11:56:05.805Z,45.10
2018-10-02T11:58:34.352Z,44.50
2018-10-02T12:01:02.974Z,43.40
2018-10-02T12:03:31.573Z,43.50
2018-10-02T12:06:00.100Z,43.60
2018-10-02T12:08:28.642Z,43.90
2018-10-02T12:10:57.149Z,43.70
2018-10-02T12:13:25.769Z,43.10
2018-10-02T12:15:54.228Z,43.00
2018-10-02T12:18:22.756Z,42.50
2018-10-02T12:20:51.275Z,42.50
2018-10-02T12:23:19.826Z,41.60
2018-10-02T12:25:48.336Z,41.20
2018-10-02T12:28:17.801Z,41.70
2018-10-02T12:30:46.343Z,41.80
2018-10-02T12:33:14.879Z,41.90
2018-10-02T12:35:43.409Z,41.60
2018-10-02T12:38:11.969Z,41.70
2018-10-02T12:40:40.477Z,41.10
2018-10-02T12:43:09.033Z,41.40
2018-10-02T12:45:37.562Z,41.50
2018-10-02T12:48:06.261Z,41.70
2018-10-02T12:50:34.853Z,42.30
2018-10-02T12:53:03.443Z,42.70
2018-10-02T12:55:32.008Z,43.10
2018-10-02T12:58:00.562Z,43.30
2018-10-02T13:00:29.114Z,43.70
2018-10-02T13:02:57.675Z,44.00
2018-10-02T13:05:26.209Z,44.30
2018-10-02T13:07:54.750Z,44.40
2018-10-02T13:10:23.305Z,44.30
2018-10-02T13:12:51.823Z,44.40
2018-10-02T13:15:20.387Z,44.40
2018-10-02T13:17:48.937Z,44.30
2018-10-02T13:20:17.851Z,44.40
2018-10-02T13:22:46.371Z,44.20
2018-10-02T13:25:14.956Z,44.40
2018-10-02T13:27:43.459Z,44.70
2018-10-02T13:30:11.990Z,44.60
2018-10-02T13:32:40.558Z,44.70
2018-10-02T13:35:09.170Z,44.80
2018-10-02T13:37:37.770Z,44.80
2018-10-02T13:40:06.489Z,44.70
2018-10-02T13:42:34.989Z,44.80
2018-10-02T13:45:04.355Z,44.70
2018-10-02T13:47:33.750Z,44.70
2018-10-02T13:50:02.353Z,44.50
2018-10-02T13:52:31.268Z,44.40
2018-10-02T13:54:59.822Z,44.40
2018-10-02T13:57:28.349Z,44.50
2018-10-02T13:59:56.915Z,44.70
2018-10-02T14:02:25.435Z,45.60
2018-10-02T14:04:53.977Z,45.80
2018-10-02T14:07:22.503Z,45.30
2018-10-02T14:09:51.041Z,45.20
2018-10-02T14:12:19.612Z,45.20
2018-10-02T14:14:48.984Z,45.20
2018-10-02T14:17:17.485Z,45.40
2018-10-02T14:19:46.039Z,45.60
2018-10-02T14:22:14.568Z,45.70
2018-10-02T14:24:43.152Z,45.80
2018-10-02T14:27:11.962Z,46.00
2018-10-02T14:29:40.880Z,46.80
2018-10-02T14:32:09.427Z,46.10
2018-10-02T14:34:37.999Z,46.20
2018-10-02T14:37:06.531Z,46.20
2018-10-02T14:39:35.098Z,46.30
2018-10-02T14:42:04.294Z,46.30
2018-10-02T14:44:32.817Z,46.30
2018-10-02T14:47:01.692Z,46.50
2018-10-02T14:49:30.474Z,46.60
2018-10-02T14:51:58.973Z,46.60
2018-10-02T14:54:27.536Z,46.60
2018-10-02T14:56:56.093Z,46.80
2018-10-02T14:59:24.755Z,47.30
2018-10-02T15:01:53.184Z,47.50
2018-10-02T15:04:22.166Z,47.90
2018-10-02T15:06:50.680Z,47.80
2018-10-02T15:09:19.196Z,47.30
2018-10-02T15:11:47.708Z,47.80
2018-10-02T15:14:16.257Z,48.00
2018-10-02T15:16:44.766Z,48.30
2018-10-02T15:19:13.300Z,48.30
2018-10-02T15:21:41.845Z,48.20
2018-10-02T15:24:10.438Z,48.30
2018-10-02T15:26:38.915Z,48.30
2018-10-02T15:29:07.484Z,48.30
2018-10-02T15:31:36.338Z,48.40
2018-10-02T15:34:05.411Z,48.40
2018-10-02T15:36:34.004Z,48.40
2018-10-02T15:39:02.576Z,48.40
2018-10-02T15:41:31.580Z,48.40
2018-10-02T15:44:00.138Z,48.50
2018-10-02T15:46:28.653Z,48.60
2018-10-02T15:48:57.203Z,49.30
2018-10-02T15:51:25.760Z,48.70
2018-10-02T15:53:54.306Z,48.90
2018-10-02T15:56:22.906Z,49.00
2018-10-02T15:58:51.458Z,49.20
2018-10-02T16:01:19.998Z,49.30
2018-10-02T16:03:48.536Z,49.60
2018-10-02T16:06:17.103Z,49.90
2018-10-02T16:08:45.611Z,50.40
2018-10-02T16:11:14.246Z,50.60
2018-10-02T16:13:42.769Z,51.20
2018-10-02T16:16:11.304Z,51.30
2018-10-02T16:18:39.832Z,51.50
2018-10-02T16:21:08.378Z,51.60
2018-10-02T16:23:39.008Z,51.90
2018-10-02T16:26:07.907Z,52.20
2018-10-02T16:28:36.465Z,52.50
2018-10-02T16:31:05.022Z,52.70
2018-10-02T16:33:33.589Z,53.10
2018-10-02T16:36:02.130Z,53.60
2018-10-02T16:38:30.653Z,53.80
2018-10-02T16:40:59.297Z,53.90
2018-10-02T16:43:27.803Z,54.30
2018-10-02T16:45:56.354Z,55.00
2018-10-02T16:48:24.901Z,54.60
2018-10-02T16:50:53.501Z,55.20
2018-10-02T16:53:22.023Z,55.60
2018-10-02T16:55:50.756Z,55.90
2018-10-02T16:58:19.287Z,56.20
2018-10-02T17:00:47.906Z,56.20
2018-10-02T17:03:16.434Z,56.30
2018-10-02T17:05:44.962Z,56.30
2018-10-02T17:08:13.502Z,56.60
2018-10-02T17:10:42.054Z,57.00
2018-10-02T17:13:10.656Z,57.20
2018-10-02T17:15:39.243Z,57.30
2018-10-02T17:18:07.792Z,57.60
2018-10-02T17:20:36.354Z,57.80
2018-10-02T17:23:04.876Z,58.20
2018-10-02T17:25:33.420Z,58.40
2018-10-02T17:28:01.972Z,58.40
2018-10-02T17:30:30.559Z,58.80
2018-10-02T17:32:59.064Z,59.00
2018-10-02T17:35:28.963Z,59.60
2018-10-02T17:37:57.521Z,59.50
2018-10-02T17:40:26.050Z,59.70
2018-10-02T17:42:54.671Z,59.80
2018-10-02T17:45:23.226Z,60.10
2018-10-02T17:47:52.519Z,60.70
2018-10-02T17:50:21.044Z,60.70
2018-10-02T17:52:49.595Z,60.80
2018-10-02T17:55:18.161Z,61.10
2018-10-02T17:57:46.740Z,61.30
2018-10-02T18:00:15.446Z,61.50
2018-10-02T18:02:44.013Z,61.80
2018-10-02T18:05:12.554Z,62.00
2018-10-02T18:07:41.971Z,62.00
2018-10-02T18:10:10.576Z,62.20
2018-10-02T18:12:39.133Z,62.40
2018-10-02T18:15:07.707Z,62.50
2018-10-02T18:17:36.245Z,62.90
2018-10-02T18:20:04.780Z,63.00
2018-10-02T18:22:33.329Z,63.30
2018-10-02T18:25:02.464Z,63.20
2018-10-02T18:27:31.058Z,63.70
2018-10-02T18:29:59.615Z,63.30
2018-10-02T18:32:28.179Z,63.30
2018-10-02T18:34:57.015Z,63.20
2018-10-02T18:37:25.565Z,63.00
2018-10-02T18:39:54.091Z,63.10
2018-10-02T18:42:22.684Z,63.00
2018-10-02T18:44:51.243Z,63.00
2018-10-02T18:47:19.879Z,63.10
2018-10-02T18:49:48.385Z,63.20
2018-10-02T18:52:16.898Z,63.30
2018-10-02T18:54:45.704Z,63.00
2018-10-02T18:57:14.213Z,63.10
2018-10-02T18:59:42.911Z,62.70
2018-10-02T19:02:11.586Z,63.00
2018-10-02T19:04:40.092Z,63.00
2018-10-02T19:07:08.627Z,62.80
2018-10-02T19:09:37.142Z,62.90
2018-10-02T19:12:15.243Z,62.90
2018-10-02T19:14:44.058Z,63.10
2018-10-02T19:17:12.617Z,63.20
2018-10-02T19:19:46.521Z,63.10
2018-10-02T19:22:15.076Z,63.00
2018-10-02T19:24:43.664Z,63.20
2018-10-02T19:27:12.163Z,63.30
2018-10-02T19:29:40.944Z,63.20
2018-10-02T19:32:17.203Z,63.30
2018-10-02T19:34:46.112Z,63.30
2018-10-02T19:37:20.001Z,64.00
2018-10-02T19:39:48.504Z,63.40
2018-10-02T19:42:17.292Z,63.70
2018-10-02T19:44:45.857Z,63.80
2018-10-02T19:47:14.395Z,64.00
2018-10-02T19:49:42.959Z,64.20
2018-10-02T19:52:12.528Z,64.30
2018-10-02T19:54:41.320Z,64.60
2018-10-02T19:57:11.458Z,64.90
2018-10-02T19:59:40.009Z,65.20
2018-10-02T20:02:08.597Z,65.40
2018-10-02T20:04:37.718Z,65.40
2018-10-02T20:07:06.449Z,65.40
2018-10-02T20:09:34.969Z,65.40
2018-10-02T20:12:04.012Z,65.40
2018-10-02T20:14:32.734Z,65.50
2018-10-02T20:17:01.265Z,65.20
2018-10-02T20:19:29.813Z,65.30
2018-10-02T20:21:58.371Z,65.90
2018-10-02T20:24:26.909Z,65.30
2018-10-02T20:26:55.449Z,65.10
2018-10-02T20:29:23.984Z,65.30
2018-10-02T20:31:52.917Z,65.30
2018-10-02T20:34:21.439Z,65.40
2018-10-02T20:36:49.943Z,65.30
2018-10-02T20:39:18.484Z,65.50
2018-10-02T20:41:47.020Z,65.80
2018-10-02T20:44:15.549Z,65.70
2018-10-02T20:46:44.099Z,65.80
2018-10-02T20:49:12.658Z,65.90
2018-10-02T20:51:41.196Z,65.90
2018-10-02T20:54:09.725Z,66.10
2018-10-02T20:56:38.238Z,66.10
2018-10-02T20:59:06.778Z,65.70
2018-10-02T21:01:35.340Z,65.90
2018-10-02T21:04:03.967Z,65.80
2018-10-02T21:06:32.483Z,65.70
2018-10-02T21:09:01.109Z,65.60
2018-10-02T21:11:29.657Z,65.80
2018-10-02T21:13:58.497Z,65.60
2018-10-02T21:16:27.076Z,66.10
2018-10-02T21:18:55.672Z,65.50
2018-10-02T21:21:24.237Z,65.50
2018-10-02T21:23:53.057Z,65.30
2018-10-02T21:26:21.592Z,65.50
2018-10-02T21:28:50.151Z,65.20
2018-10-02T21:31:18.676Z,65.10
2018-10-02T21:33:47.271Z,65.00
2018-10-02T21:36:15.836Z,65.00
2018-10-02T21:38:44.362Z,65.00
2018-10-02T21:41:12.881Z,65.00
2018-10-02T21:43:41.495Z,64.90
2018-10-02T21:46:10.080Z,64.80
2018-10-02T21:48:38.659Z,64.50
2018-10-02T21:51:07.410Z,64.40
2018-10-02T21:53:36.773Z,64.30
2018-10-02T21:56:06.057Z,63.90
2018-10-02T21:58:34.613Z,64.20
2018-10-02T22:01:04.645Z,65.40
2018-10-02T22:03:38.426Z,65.30
2018-10-02T22:06:09.131Z,65.50
2018-10-02T22:08:39.835Z,66.00
2018-10-02T22:11:10.892Z,66.70
2018-10-02T22:13:42.622Z,66.80
2018-10-02T22:16:11.223Z,67.30
2018-10-02T22:21:12.508Z,67.80
2018-10-02T22:23:41.298Z,68.90
2018-10-02T22:26:09.824Z,69.00
2018-10-02T22:28:38.362Z,69.60
2018-10-02T22:31:09.139Z,69.60
2018-10-02T22:33:40.443Z,69.30
2018-10-02T22:36:10.428Z,69.50
2018-10-02T22:38:41.369Z,69.00
2018-10-02T22:41:11.234Z,69.30
2018-10-02T22:43:39.994Z,69.00
2018-10-02T22:46:08.616Z,68.80
2018-10-02T22:48:37.731Z,68.70
2018-10-02T22:51:06.569Z,68.60
2018-10-02T22:53:35.315Z,68.40
2018-10-02T22:56:03.866Z,69.10
2018-10-02T22:58:32.383Z,68.10
2018-10-02T23:01:01.174Z,68.20
2018-10-02T23:03:30.071Z,68.80
2018-10-02T23:05:58.665Z,68.70
2018-10-02T23:08:27.234Z,68.60
2018-10-02T23:10:55.803Z,68.60
2018-10-02T23:13:24.405Z,68.80
2018-10-02T23:15:52.976Z,68.80
2018-10-02T23:18:21.487Z,69.30
2018-10-02T23:20:50.048Z,69.70
2018-10-02T23:23:19.327Z,69.80
2018-10-02T23:25:48.261Z,69.70
2018-10-02T23:28:16.990Z,69.80
2018-10-02T23:30:45.781Z,69.60
2018-10-02T23:33:14.631Z,69.50
2018-10-02T23:35:43.445Z,69.50
2018-10-02T23:38:12.009Z,69.40
2018-10-02T23:40:40.951Z,69.30
2018-10-02T23:43:10.253Z,69.00
2018-10-02T23:45:39.086Z,69.00
2018-10-02T23:48:07.948Z,68.70
2018-10-02T23:50:36.441Z,68.40
2018-10-02T23:53:04.984Z,68.00
2018-10-02T23:55:33.760Z,67.70
2018-10-02T23:58:02.708Z,67.30
